Time;durP1;ratioP1;P1;durP2;ratioP2;P2;SDS_P1;SDS_P2;PMS_P1;PMS_P2;Temp;Humidity;BMP_temperature;BMP_pressure;BME280_temperature;BME280_humidity;BME280_pressure;Samples;Min_cycle;Max_cycle;Signal;HPM_P1;HPM_P2
2022/09/08 00:00:45;;;;;;;6.60;3.40;;;18.10;99.90;;;;;;4405047;27;10000190;-74
2022/09/08 00:03:14;;;;;;;4.90;3.63;;;18.00;99.90;;;;;;5128333;27;20019;-74
2022/09/08 00:06:05;;;;;;;3.92;3.05;;;18.00;99.90;;;;;;5111526;27;20027;-74
2022/09/08 00:08:31;;;;;;;5.68;3.58;;;18.00;99.90;;;;;;5119578;27;20100;-75
2022/09/08 00:11:01;;;;;;;5.13;3.90;;;18.00;99.90;;;;;;5118325;27;20498;-74
2022/09/08 00:13:29;;;;;;;5.72;4.10;;;18.10;99.90;;;;;;5116841;27;20031;-75
2022/09/08 00:15:56;;;;;;;5.75;4.18;;;18.10;99.90;;;;;;5116959;27;20018;-74
2022/09/08 00:18:23;;;;;;;6.38;4.20;;;18.10;99.90;;;;;;5111862;27;20055;-74
2022/09/08 00:20:49;;;;;;;6.25;4.60;;;18.10;99.90;;;;;;5124473;27;20050;-75
2022/09/08 00:23:15;;;;;;;6.22;4.00;;;18.20;99.90;;;;;;5117239;27;20024;-75
2022/09/08 00:25:40;;;;;;;6.10;4.00;;;18.20;99.90;;;;;;5124035;27;20029;-74
2022/09/08 00:28:06;;;;;;;4.40;4.00;;;18.20;99.90;;;;;;5116351;27;20055;-75
2022/09/08 00:30:33;;;;;;;5.72;3.45;;;18.20;99.90;;;;;;5116011;27;20122;-74
2022/09/08 00:32:59;;;;;;;3.80;3.30;;;18.10;99.90;;;;;;5114543;27;20055;-74
2022/09/08 00:35:25;;;;;;;5.68;4.13;;;18.00;99.90;;;;;;5121243;27;20054;-74
2022/09/08 00:37:52;;;;;;;5.38;3.78;;;18.00;99.90;;;;;;5125967;27;20454;-74
2022/09/08 00:40:19;;;;;;;5.70;4.32;;;18.00;99.90;;;;;;5120253;27;20042;-75
2022/09/08 00:42:45;;;;;;;4.97;4.50;;;18.00;99.90;;;;;;5124500;27;20109;-74
2022/09/08 00:45:17;;;;;;;6.25;3.47;;;18.00;99.90;;;;;;5114520;27;20500;-74
2022/09/08 00:47:51;;;;;;;6.13;3.67;;;18.00;99.90;;;;;;5126070;28;20015;-74
2022/09/08 00:50:21;;;;;;;6.25;2.97;;;18.00;99.90;;;;;;5119592;28;20038;-73
2022/09/08 00:53:00;;;;;;;4.40;2.90;;;17.90;99.90;;;;;;5111394;27;20035;-74
2022/09/08 00:55:31;;;;;;;5.35;2.40;;;17.70;99.90;;;;;;5116183;27;20490;-74
2022/09/08 00:57:57;;;;;;;3.53;2.90;;;17.60;99.90;;;;;;5118025;27;20399;-74
2022/09/08 01:00:22;;;;;;;4.63;2.70;;;17.50;99.90;;;;;;5116820;27;20028;-74
2022/09/08 01:02:49;;;;;;;3.22;2.90;;;17.50;99.90;;;;;;5126958;27;20252;-75
2022/09/08 01:05:20;;;;;;;4.38;3.00;;;17.50;99.90;;;;;;5116656;27;20111;-74
2022/09/08 01:14:16;;;;;;;3.90;3.50;;;17.40;99.90;;;;;;5109279;27;20092;-74
2022/09/08 01:16:43;;;;;;;4.63;2.88;;;17.30;99.90;;;;;;5111255;27;20047;-74
2022/09/08 01:19:25;;;;;;;3.13;2.60;;;17.20;99.90;;;;;;5111445;27;20099;-74
2022/09/08 01:22:02;;;;;;;2.63;2.17;;;17.20;99.90;;;;;;5111493;27;20042;-75
2022/09/08 01:24:39;;;;;;;5.57;2.45;;;17.20;99.90;;;;;;5131448;27;20039;-75
2022/09/08 01:27:12;;;;;;;5.90;2.28;;;17.20;99.90;;;;;;5112758;27;20176;-74
2022/09/08 01:29:41;;;;;;;2.20;2.00;;;17.10;99.90;;;;;;5130310;27;20027;-73
2022/09/08 01:32:09;;;;;;;3.38;2.50;;;17.10;99.90;;;;;;5121878;27;20540;-74
2022/09/08 01:34:43;;;;;;;4.38;2.40;;;17.10;99.90;;;;;;5124301;27;20653;-74
2022/09/08 01:37:09;;;;;;;5.25;2.30;;;17.00;99.90;;;;;;5131489;27;20146;-74
2022/09/08 01:39:35;;;;;;;2.33;2.10;;;17.00;99.90;;;;;;5119086;27;20513;-74
2022/09/08 01:42:01;;;;;;;2.30;2.08;;;17.00;99.90;;;;;;5090271;27;20032;-74
2022/09/08 01:44:28;;;;;;;3.20;2.75;;;17.00;99.90;;;;;;5106307;27;20028;-74
2022/09/08 01:46:54;;;;;;;3.15;2.67;;;16.90;99.90;;;;;;5107938;27;20031;-74
2022/09/08 01:49:20;;;;;;;3.22;2.58;;;16.90;99.90;;;;;;5099812;27;20032;-74
2022/09/08 01:51:45;;;;;;;2.88;2.55;;;16.90;99.90;;;;;;5092793;28;20020;-74
2022/09/08 01:54:11;;;;;;;3.47;2.35;;;16.80;99.90;;;;;;5112247;27;20056;-74
2022/09/08 01:56:36;;;;;;;2.47;2.28;;;16.80;99.90;;;;;;5094839;28;20031;-74
2022/09/08 01:59:02;;;;;;;2.50;2.22;;;16.80;99.90;;;;;;5094078;28;20487;-74
2022/09/08 02:01:28;;;;;;;2.40;2.25;;;16.70;99.90;;;;;;5098609;27;20028;-74
2022/09/08 02:03:54;;;;;;;7.53;3.03;;;16.80;99.90;;;;;;5101545;27;20080;-74
2022/09/08 02:06:19;;;;;;;4.90;3.00;;;16.80;99.90;;;;;;5095174;27;20239;-74
2022/09/08 02:08:52;;;;;;;2.58;2.38;;;16.80;99.90;;;;;;5102615;27;21040;-74
2022/09/08 02:11:18;;;;;;;;;;;16.70;99.90;;;;;;5097834;27;20035;-73
2022/09/08 02:13:44;;;;;;;2.85;2.53;;;16.80;99.90;;;;;;5098216;27;19972;-74
2022/09/08 02:16:11;;;;;;;3.00;2.80;;;16.70;99.90;;;;;;5101491;27;20115;-74
2022/09/08 02:18:38;;;;;;;3.08;2.78;;;16.70;99.90;;;;;;5101362;27;20024;-74
2022/09/08 02:21:13;;;;;;;3.45;2.78;;;16.70;99.90;;;;;;5101803;27;20118;-74
2022/09/08 02:23:41;;;;;;;7.15;2.70;;;16.70;99.90;;;;;;5099323;27;20024;-74
2022/09/08 02:26:12;;;;;;;5.28;3.17;;;16.70;99.90;;;;;;5102069;27;20036;-74
2022/09/08 02:28:38;;;;;;;3.40;2.85;;;16.70;99.90;;;;;;5104747;27;20436;-74
2022/09/08 02:31:03;;;;;;;3.55;2.50;;;16.70;99.90;;;;;;5106439;27;20123;-74
2022/09/08 02:33:30;;;;;;;3.10;2.80;;;16.70;99.90;;;;;;5103004;27;20380;-73
2022/09/08 02:35:56;;;;;;;5.47;3.28;;;16.70;99.90;;;;;;5106034;27;20054;-74
2022/09/08 02:38:23;;;;;;;4.68;3.13;;;16.70;99.90;;;;;;5113089;27;20492;-74
2022/09/08 02:40:48;;;;;;;3.03;2.83;;;16.70;99.90;;;;;;5110064;27;20047;-73
2022/09/08 02:43:14;;;;;;;4.97;3.15;;;16.70;99.90;;;;;;5115158;27;20094;-74
2022/09/08 02:45:40;;;;;;;4.75;3.40;;;16.60;99.90;;;;;;5117236;27;20250;-74
2022/09/08 02:48:06;;;;;;;5.07;4.32;;;16.60;99.90;;;;;;5115399;27;20040;-74
2022/09/08 02:50:32;;;;;;;4.00;3.63;;;16.70;99.90;;;;;;5130715;27;20512;-73
2022/09/08 02:52:58;;;;;;;3.70;3.33;;;16.60;99.90;;;;;;5109668;27;20104;-74
2022/09/08 02:55:24;;;;;;;3.70;3.30;;;16.60;99.90;;;;;;5116640;27;20498;-74
2022/09/08 02:57:50;;;;;;;7.38;2.85;;;16.50;99.90;;;;;;5127252;27;20054;-73
2022/09/08 03:00:17;;;;;;;4.25;2.38;;;16.50;99.90;;;;;;5127267;27;20490;-74
2022/09/08 03:02:43;;;;;;;5.50;2.30;;;16.30;99.90;;;;;;5129711;27;20035;-74
2022/09/08 03:05:09;;;;;;;3.08;2.40;;;16.20;99.90;;;;;;5124368;27;20029;-73
2022/09/08 03:07:37;;;;;;;4.10;2.30;;;16.00;99.90;;;;;;5128673;27;20088;-73
2022/09/08 03:10:05;;;;;;;3.05;2.65;;;16.00;99.90;;;;;;5127228;27;20114;-74
2022/09/08 03:12:32;;;;;;;6.25;3.20;;;15.90;99.90;;;;;;5126080;27;20030;-74
2022/09/08 03:14:58;;;;;;;3.42;2.45;;;15.90;99.90;;;;;;5121426;27;20666;-74
2022/09/08 03:17:23;;;;;;;2.65;2.45;;;15.90;99.90;;;;;;5115882;27;20034;-74
2022/09/08 03:19:50;;;;;;;4.05;3.70;;;16.00;99.90;;;;;;5124947;27;20520;-74
2022/09/08 03:22:17;;;;;;;5.05;4.32;;;16.00;99.90;;;;;;5122257;27;20027;-74
2022/09/08 03:24:43;;;;;;;4.95;3.40;;;16.10;99.90;;;;;;5124608;27;20542;-74
2022/09/08 03:27:09;;;;;;;3.97;3.20;;;16.20;99.90;;;;;;5115425;27;20035;-74
2022/09/08 03:29:34;;;;;;;5.70;4.57;;;16.20;99.90;;;;;;5131028;27;20019;-74
2022/09/08 03:32:00;;;;;;;7.90;3.72;;;16.10;99.90;;;;;;5112273;27;20088;-74
2022/09/08 03:34:26;;;;;;;7.32;3.65;;;16.10;99.90;;;;;;5124112;27;20050;-74
2022/09/08 03:36:53;;;;;;;4.28;3.78;;;16.00;99.90;;;;;;5127359;27;20515;-74
2022/09/08 03:39:19;;;;;;;6.72;4.10;;;15.90;99.90;;;;;;5126246;27;20065;-74
2022/09/08 03:41:44;;;;;;;4.20;3.80;;;15.90;99.90;;;;;;5127764;27;20450;-74
2022/09/08 03:44:10;;;;;;;4.93;3.70;;;15.80;99.90;;;;;;5120872;27;20023;-74
2022/09/08 03:46:36;;;;;;;3.92;3.60;;;15.80;99.90;;;;;;5143337;27;20168;-73
2022/09/08 03:49:02;;;;;;;5.45;3.60;;;15.80;99.90;;;;;;5122541;27;20024;-74
2022/09/08 03:51:28;;;;;;;4.13;3.60;;;15.80;99.90;;;;;;5125157;27;20023;-74
2022/09/08 03:56:41;;;;;;;3.25;2.80;;;15.80;99.90;;;;;;5121763;27;20084;-74
2022/09/08 03:59:08;;;;;;;3.30;2.97;;;15.80;99.90;;;;;;5115788;27;20113;-73
2022/09/08 04:01:34;;;;;;;3.80;3.45;;;15.80;99.90;;;;;;5116372;27;20382;-74
2022/09/08 04:03:59;;;;;;;4.18;3.55;;;15.90;99.90;;;;;;5125642;27;20665;-74
2022/09/08 04:06:25;;;;;;;4.72;3.25;;;16.00;99.90;;;;;;5124358;27;20023;-74
2022/09/08 04:08:51;;;;;;;4.10;3.70;;;15.90;99.90;;;;;;5119816;27;20109;-74
2022/09/08 04:11:16;;;;;;;4.38;3.78;;;15.90;99.90;;;;;;5124649;27;20022;-74
2022/09/08 04:13:42;;;;;;;5.32;3.70;;;15.90;99.90;;;;;;5114846;27;20027;-74
2022/09/08 04:16:08;;;;;;;6.32;3.80;;;16.00;99.90;;;;;;5128140;27;20027;-74
2022/09/08 04:18:34;;;;;;;4.45;4.00;;;16.00;99.90;;;;;;5131017;27;20081;-73
2022/09/08 04:21:02;;;;;;;5.25;3.80;;;16.00;99.90;;;;;;5125261;27;20036;-73
2022/09/08 04:23:28;;;;;;;5.07;4.40;;;16.00;99.90;;;;;;5115068;27;20019;-73
2022/09/08 04:26:03;;;;;;;5.10;4.38;;;16.00;99.90;;;;;;5123315;27;20026;-73
2022/09/08 04:28:30;;;;;;;5.22;4.72;;;16.00;99.90;;;;;;5127631;27;20035;-73
2022/09/08 04:30:55;;;;;;;7.45;5.10;;;16.10;99.90;;;;;;5125360;27;20038;-73
2022/09/08 04:33:21;;;;;;;6.90;5.10;;;16.10;99.90;;;;;;5108287;27;20019;-73
2022/09/08 04:35:47;;;;;;;7.13;5.60;;;16.10;99.90;;;;;;5114316;27;20084;-74
2022/09/08 04:38:13;;;;;;;5.68;5.00;;;16.10;99.90;;;;;;5120516;27;20386;-73
2022/09/08 04:40:40;;;;;;;10.32;5.43;;;16.10;99.90;;;;;;5135496;27;20494;-74
2022/09/08 04:43:05;;;;;;;7.53;4.90;;;16.20;99.90;;;;;;5128941;27;20494;-73
2022/09/08 04:45:31;;;;;;;5.10;4.57;;;16.20;99.90;;;;;;5122114;27;20033;-73
2022/09/08 04:47:57;;;;;;;8.07;5.30;;;16.20;99.90;;;;;;5120028;27;20016;-73
2022/09/08 04:50:22;;;;;;;5.32;4.82;;;16.20;99.90;;;;;;5133639;27;20063;-73
2022/09/08 04:52:48;;;;;;;7.07;5.00;;;16.30;99.90;;;;;;5111643;27;20498;-74
2022/09/08 04:55:14;;;;;;;7.95;5.05;;;16.30;99.90;;;;;;5122502;27;20027;-74
2022/09/08 04:57:39;;;;;;;5.97;5.35;;;16.30;99.90;;;;;;5115264;27;20027;-74
2022/09/08 05:00:07;;;;;;;6.47;5.32;;;16.30;99.90;;;;;;5125654;27;20078;-74
2022/09/08 05:02:32;;;;;;;6.07;5.47;;;16.30;99.90;;;;;;5117037;27;20032;-74
2022/09/08 05:04:58;;;;;;;7.90;5.43;;;16.30;99.90;;;;;;5132367;27;20447;-75
2022/09/08 05:07:23;;;;;;;9.25;5.00;;;16.30;99.90;;;;;;5138637;27;20054;-76
2022/09/08 05:09:49;;;;;;;9.60;5.25;;;16.30;99.90;;;;;;5120966;27;20533;-80
2022/09/08 05:12:15;;;;;;;6.80;5.53;;;16.30;99.90;;;;;;5126922;27;20291;-82
2022/09/08 05:14:40;;;;;;;8.02;5.90;;;16.30;99.90;;;;;;5113300;27;20182;-81
2022/09/08 05:17:06;;;;;;;8.90;5.55;;;16.30;99.90;;;;;;5120721;27;20401;-81
2022/09/08 05:19:31;;;;;;;9.32;5.65;;;16.30;99.90;;;;;;5132078;27;20015;-83
2022/09/08 05:21:57;;;;;;;8.93;5.50;;;16.20;99.90;;;;;;5134710;27;20015;-79
2022/09/08 05:24:24;;;;;;;7.90;6.10;;;16.30;99.90;;;;;;5116040;27;20111;-79
2022/09/08 05:26:49;;;;;;;7.38;5.60;;;16.20;99.90;;;;;;5132673;27;20113;-80
2022/09/08 05:29:15;;;;;;;7.93;5.95;;;16.20;99.90;;;;;;5125107;27;20480;-81
2022/09/08 05:31:40;;;;;;;6.72;5.60;;;16.20;99.90;;;;;;5123477;27;20872;-84
2022/09/08 05:34:07;;;;;;;7.32;5.22;;;16.20;99.90;;;;;;5133752;27;20031;-83
2022/09/08 05:36:35;;;;;;;7.60;5.43;;;16.20;99.90;;;;;;5124906;27;20111;-82
2022/09/08 05:39:03;;;;;;;9.63;5.20;;;16.30;99.90;;;;;;5118274;27;20056;-82
2022/09/08 05:41:30;;;;;;;6.88;5.32;;;16.20;99.90;;;;;;5106597;27;20578;-81
2022/09/08 05:43:57;;;;;;;5.82;4.57;;;16.20;99.90;;;;;;5118661;27;20031;-81
2022/09/08 05:46:27;;;;;;;7.28;5.28;;;16.20;99.90;;;;;;5114944;27;20073;-82
2022/09/08 05:48:54;;;;;;;6.55;4.95;;;16.20;99.90;;;;;;5136317;27;20106;-82
2022/09/08 05:51:20;;;;;;;5.57;4.80;;;16.20;99.90;;;;;;5118251;27;20035;-82
2022/09/08 05:53:47;;;;;;;6.03;4.60;;;16.20;99.90;;;;;;5122118;27;20035;-83
2022/09/08 05:56:18;;;;;;;7.70;5.25;;;16.20;99.90;;;;;;5122596;27;20170;-81
2022/09/08 05:58:54;;;;;;;7.03;4.72;;;16.20;99.90;;;;;;5117725;27;20032;-82
2022/09/08 06:01:20;;;;;;;7.78;4.80;;;16.20;99.90;;;;;;5114456;27;20709;-81
2022/09/08 06:03:51;;;;;;;11.00;4.90;;;16.20;99.90;;;;;;5121106;27;20072;-82
2022/09/08 06:06:17;;;;;;;8.43;4.90;;;16.20;99.90;;;;;;5122530;27;20041;-82
2022/09/08 06:08:43;;;;;;;7.90;5.10;;;16.20;99.90;;;;;;5118579;27;20478;-83
2022/09/08 06:11:09;;;;;;;6.50;4.57;;;16.20;99.90;;;;;;5120416;27;20030;-81
2022/09/08 06:13:35;;;;;;;9.95;4.40;;;16.20;99.90;;;;;;5111150;27;20035;-82
2022/09/08 06:16:09;;;;;;;6.97;4.50;;;16.20;99.90;;;;;;5122817;27;20036;-82
2022/09/08 06:18:36;;;;;;;7.40;4.07;;;16.20;99.90;;;;;;5125100;27;20031;-82
2022/09/08 06:21:07;;;;;;;6.00;3.88;;;16.20;99.90;;;;;;5120150;27;20023;-80
2022/09/08 06:23:33;;;;;;;4.75;3.95;;;16.20;99.90;;;;;;5125375;27;20033;-80
2022/09/08 06:26:13;;;;;;;4.53;3.60;;;16.20;99.90;;;;;;5134100;27;20094;-82
2022/09/08 06:28:53;;;;;;;6.35;3.90;;;16.20;99.90;;;;;;5117746;27;20019;-81
2022/09/08 06:31:26;;;;;;;6.32;3.55;;;16.30;99.90;;;;;;5122747;27;20027;-81
2022/09/08 06:33:53;;;;;;;7.45;4.57;;;16.30;99.90;;;;;;5122451;27;20498;-82
2022/09/08 06:36:29;;;;;;;7.32;4.63;;;16.30;99.90;;;;;;5121302;27;20043;-82
2022/09/08 06:39:05;;;;;;;5.18;3.83;;;16.30;99.90;;;;;;5119693;27;20438;-82
2022/09/08 06:41:39;;;;;;;6.43;3.75;;;16.40;99.90;;;;;;5116496;27;20486;-82
2022/09/08 06:44:12;;;;;;;5.57;3.60;;;16.40;99.90;;;;;;5112880;27;20035;-82
2022/09/08 06:46:39;;;;;;;5.60;3.45;;;16.40;99.90;;;;;;5108169;27;20023;-82
2022/09/08 06:49:05;;;;;;;4.30;3.65;;;16.40;99.90;;;;;;5115081;27;20038;-82
2022/09/08 06:51:44;;;;;;;4.63;3.55;;;16.40;99.90;;;;;;5119513;27;20023;-81
2022/09/08 06:54:10;;;;;;;5.63;3.70;;;16.40;99.90;;;;;;5106089;27;20055;-82
2022/09/08 06:56:38;;;;;;;5.70;4.32;;;16.50;99.90;;;;;;5120764;27;20463;-82
2022/09/08 06:59:31;;;;;;;5.22;3.97;;;16.50;99.90;;;;;;5108377;27;20055;-82
2022/09/08 07:02:34;;;;;;;4.93;4.07;;;16.50;99.90;;;;;;5117539;27;20204;-82
2022/09/08 07:05:11;;;;;;;6.97;4.78;;;16.50;99.90;;;;;;5067394;27;20111;-80
2022/09/08 07:07:51;;;;;;;5.88;4.47;;;16.50;99.90;;;;;;5112623;27;20100;-82
2022/09/08 07:10:28;;;;;;;7.80;4.60;;;16.60;99.90;;;;;;5113739;27;20062;-81
2022/09/08 07:13:23;;;;;;;8.02;5.00;;;16.50;99.90;;;;;;5110149;27;20709;-81
2022/09/08 07:15:57;;;;;;;9.73;5.30;;;16.60;99.90;;;;;;5118930;27;20050;-80
2022/09/08 07:18:28;;;;;;;11.98;5.40;;;16.50;99.90;;;;;;5109239;27;20024;-80
2022/09/08 07:21:22;;;;;;;8.75;5.68;;;16.50;99.90;;;;;;5109453;27;20165;-80
2022/09/08 07:23:50;;;;;;;9.35;5.20;;;16.50;99.90;;;;;;5118070;27;20019;-79
2022/09/08 07:26:34;;;;;;;7.55;5.38;;;16.50;99.90;;;;;;5124296;27;20516;-78
2022/09/08 07:29:10;;;;;;;8.27;5.35;;;16.50;99.90;;;;;;5110956;27;20106;-80
2022/09/08 07:31:41;;;;;;;8.00;5.95;;;16.40;99.90;;;;;;5114309;27;20076;-80
2022/09/08 07:34:15;;;;;;;10.55;5.93;;;16.40;99.90;;;;;;5106963;27;20106;-79
2022/09/08 07:37:17;;;;;;;7.60;5.80;;;16.40;99.90;;;;;;5110436;27;20058;-77
2022/09/08 07:40:17;;;;;;;11.52;6.20;;;16.40;99.90;;;;;;5067689;28;20043;-77
2022/09/08 07:42:48;;;;;;;11.57;5.95;;;16.40;99.90;;;;;;5111739;27;20439;-78
2022/09/08 07:45:14;;;;;;;9.90;5.85;;;16.40;99.90;;;;;;5110857;27;20058;-78
2022/09/08 07:47:43;;;;;;;7.80;5.63;;;16.40;99.90;;;;;;5130700;27;20066;-78
2022/09/08 07:50:22;;;;;;;8.43;5.93;;;16.40;99.90;;;;;;5120517;27;20062;-79
2022/09/08 07:53:27;;;;;;;9.90;5.50;;;16.30;99.90;;;;;;5117357;27;20515;-79
2022/09/08 07:56:00;;;;;;;8.25;5.50;;;16.30;99.90;;;;;;5103078;27;20138;-80
2022/09/08 07:58:31;;;;;;;8.13;5.15;;;16.40;99.90;;;;;;5120038;27;20483;-79
2022/09/08 08:01:06;;;;;;;6.78;5.00;;;16.40;99.90;;;;;;5109669;27;20035;-81
2022/09/08 08:03:39;;;;;;;7.10;5.63;;;16.40;99.90;;;;;;5110676;27;20026;-80
2022/09/08 08:06:14;;;;;;;6.93;5.55;;;16.50;99.90;;;;;;5111039;27;20030;-79
2022/09/08 08:09:03;;;;;;;9.73;5.47;;;16.50;99.90;;;;;;5113366;27;20089;-79
2022/09/08 08:12:03;;;;;;;6.78;5.15;;;16.50;99.90;;;;;;5105384;27;20036;-80
2022/09/08 08:14:44;;;;;;;9.75;5.55;;;16.60;99.90;;;;;;5100459;27;20408;-80
2022/09/08 08:17:13;;;;;;;8.35;5.80;;;16.60;99.90;;;;;;5105363;27;20118;-81
2022/09/08 08:20:00;;;;;;;6.55;4.80;;;16.70;99.90;;;;;;5124620;27;20067;-79
2022/09/08 08:22:34;;;;;;;5.70;4.78;;;16.70;99.90;;;;;;5112625;27;20520;-80
2022/09/08 08:25:24;;;;;;;7.25;5.07;;;16.80;99.90;;;;;;5114297;27;20024;-79
2022/09/08 08:28:25;;;;;;;7.95;5.30;;;16.80;99.90;;;;;;5123675;27;20044;-81
2022/09/08 08:31:16;;;;;;;9.20;5.07;;;16.80;99.90;;;;;;5106099;27;20142;-80
2022/09/08 08:33:48;;;;;;;6.35;5.15;;;16.80;99.90;;;;;;5115308;27;20106;-80
2022/09/08 08:36:17;;;;;;;6.25;5.05;;;16.80;99.90;;;;;;4759738;27;9999819;-77
2022/09/08 08:38:55;;;;;;;7.53;5.20;;;16.70;99.90;;;;;;5104278;27;20027;-81
2022/09/08 08:41:46;;;;;;;5.20;4.43;;;16.70;99.90;;;;;;5112012;27;20157;-81
2022/09/08 08:44:30;;;;;;;7.05;4.78;;;16.80;99.90;;;;;;5106386;28;20031;-81
2022/09/08 08:47:20;;;;;;;4.65;4.20;;;16.80;99.90;;;;;;5109810;27;20118;-79
2022/09/08 08:50:01;;;;;;;5.05;4.10;;;16.80;99.90;;;;;;5114137;27;20472;-80
2022/09/08 08:52:54;;;;;;;6.00;3.80;;;16.90;99.90;;;;;;5117240;27;20024;-80
2022/09/08 08:55:43;;;;;;;6.25;4.18;;;16.90;99.90;;;;;;5115749;28;20034;-80
2022/09/08 08:58:56;;;;;;;6.85;4.88;;;16.90;99.90;;;;;;5103553;27;20027;-81
2022/09/08 09:02:01;;;;;;;5.53;4.40;;;17.00;99.90;;;;;;5049823;28;20039;-81
2022/09/08 09:05:06;;;;;;;6.03;4.38;;;16.90;99.90;;;;;;5065942;28;20043;-82
2022/09/08 09:08:08;;;;;;;5.53;4.30;;;17.00;99.90;;;;;;5103236;28;20084;-80
2022/09/08 09:10:42;;;;;;;5.10;4.30;;;16.90;99.90;;;;;;5108836;27;20031;-82
2022/09/08 09:13:29;;;;;;;5.18;4.55;;;16.90;99.90;;;;;;5111456;27;20024;-81
2022/09/08 09:16:28;;;;;;;5.28;4.28;;;16.90;99.90;;;;;;5111649;27;20041;-79
2022/09/08 09:19:15;;;;;;;5.93;5.22;;;17.00;99.90;;;;;;5113521;28;20032;-81
2022/09/08 09:21:51;;;;;;;6.05;4.50;;;16.90;99.90;;;;;;5092131;28;20059;-83
2022/09/08 09:24:37;;;;;;;4.68;3.85;;;16.90;99.90;;;;;;5100644;27;20784;-80
2022/09/08 09:27:30;;;;;;;6.57;4.15;;;16.90;99.90;;;;;;5103573;27;20054;-79
2022/09/08 09:30:16;;;;;;;4.95;4.18;;;16.90;99.90;;;;;;5109892;27;20080;-82
2022/09/08 09:33:00;;;;;;;8.70;4.60;;;16.90;99.90;;;;;;5084675;28;20039;-83
2022/09/08 09:35:45;;;;;;;8.75;4.55;;;16.90;99.90;;;;;;5111947;27;20398;-82
2022/09/08 09:38:36;;;;;;;7.13;4.20;;;16.80;99.90;;;;;;5107594;27;20031;-82
2022/09/08 09:41:23;;;;;;;3.92;3.53;;;16.80;99.90;;;;;;5113565;27;20043;-83
2022/09/08 09:44:03;;;;;;;4.00;3.13;;;16.80;99.90;;;;;;5116238;27;20039;-83
2022/09/08 09:46:44;;;;;;;4.28;2.70;;;16.80;99.90;;;;;;5113827;27;20023;-81
2022/09/08 09:49:31;;;;;;;3.20;2.90;;;16.80;99.90;;;;;;5114261;27;20242;-83
2022/09/08 09:52:27;;;;;;;4.78;2.58;;;16.80;99.90;;;;;;5114271;27;20045;-82
2022/09/08 09:55:22;;;;;;;3.03;2.72;;;16.90;99.90;;;;;;5110296;27;23208;-82
2022/09/08 09:58:15;;;;;;;2.45;2.25;;;16.90;99.90;;;;;;5099852;27;20122;-81
2022/09/08 10:01:09;;;;;;;4.25;2.85;;;16.90;99.90;;;;;;5113883;27;20039;-82
2022/09/08 10:04:00;;;;;;;5.53;3.20;;;17.00;99.90;;;;;;5106515;27;20035;-82
2022/09/08 10:06:47;;;;;;;6.43;2.97;;;17.00;99.90;;;;;;5105764;27;20023;-83
2022/09/08 10:09:50;;;;;;;4.15;3.22;;;17.00;99.90;;;;;;5103551;27;20058;-78
2022/09/08 10:12:31;;;;;;;4.23;3.00;;;17.00;99.90;;;;;;5110948;27;20382;-84
2022/09/08 10:15:31;;;;;;;3.45;3.10;;;17.10;99.90;;;;;;5106337;27;20277;-83
2022/09/08 10:18:33;;;;;;;5.10;3.20;;;17.10;99.90;;;;;;5110032;27;20039;-83
2022/09/08 10:21:13;;;;;;;4.88;3.03;;;17.10;99.90;;;;;;5110500;27;20031;-84
2022/09/08 10:23:55;;;;;;;3.35;2.65;;;17.10;99.90;;;;;;5103944;27;20088;-81
2022/09/08 10:26:47;;;;;;;4.07;2.27;;;17.10;99.90;;;;;;5107682;27;20143;-84
2022/09/08 10:29:57;;;;;;;4.47;2.70;;;17.10;99.90;;;;;;5090167;27;20133;-82
2022/09/08 10:32:41;;;;;;;4.57;2.75;;;17.10;99.90;;;;;;5051050;28;20521;-82
2022/09/08 10:35:18;;;;;;;4.47;3.00;;;17.10;99.90;;;;;;5097010;27;20785;-83
2022/09/08 10:38:07;;;;;;;2.70;2.50;;;17.00;99.90;;;;;;5115918;27;20039;-83
2022/09/08 10:40:58;;;;;;;5.47;2.60;;;17.00;99.90;;;;;;5113605;27;20078;-83
2022/09/08 10:43:33;;;;;;;2.80;2.60;;;17.00;99.90;;;;;;5102935;27;20038;-82
2022/09/08 10:46:17;;;;;;;3.55;2.50;;;17.00;99.90;;;;;;5106787;27;20030;-83
2022/09/08 10:48:54;;;;;;;2.47;2.28;;;17.10;99.90;;;;;;5107366;27;20020;-83
2022/09/08 10:51:40;;;;;;;4.03;2.35;;;17.10;99.90;;;;;;5105915;27;20395;-83
2022/09/08 10:54:24;;;;;;;2.20;2.00;;;17.10;99.90;;;;;;5096019;27;20550;-77
2022/09/08 10:56:54;;;;;;;3.58;2.20;;;17.30;99.90;;;;;;5114377;27;20034;-80
2022/09/08 10:59:43;;;;;;;3.40;2.38;;;17.50;99.90;;;;;;5122290;27;20636;-76
2022/09/08 11:02:16;;;;;;;2.17;1.98;;;18.00;99.90;;;;;;5113708;27;20035;-76
2022/09/08 11:05:10;;;;;;;1.20;1.20;;;18.70;99.90;;;;;;5121937;27;20039;-76
2022/09/08 11:07:55;;;;;;;2.67;1.15;;;19.20;99.90;;;;;;5113295;27;20560;-75
2022/09/08 11:10:44;;;;;;;1.35;0.90;;;19.40;99.90;;;;;;5118764;27;20055;-79
2022/09/08 11:13:29;;;;;;;1.10;1.00;;;19.50;99.90;;;;;;5112618;27;20070;-79
2022/09/08 11:16:31;;;;;;;1.20;1.00;;;19.40;99.90;;;;;;5116778;27;20057;-81
2022/09/08 11:19:22;;;;;;;1.45;1.25;;;19.40;99.90;;;;;;5123019;27;20480;-76
2022/09/08 11:22:08;;;;;;;0.90;0.90;;;;;;;;;;5117167;27;20046;-78
2022/09/08 11:24:53;;;;;;;0.90;0.90;;;19.40;99.90;;;;;;5126856;27;20019;-77
2022/09/08 11:27:28;;;;;;;1.13;0.80;;;19.30;99.90;;;;;;5119284;27;20502;-75
2022/09/08 11:30:20;;;;;;;3.67;0.70;;;19.30;99.90;;;;;;5118825;27;20079;-76
2022/09/08 11:33:14;;;;;;;1.25;0.80;;;19.30;99.90;;;;;;5119340;27;20024;-79
2022/09/08 11:36:02;;;;;;;0.93;0.90;;;19.30;99.90;;;;;;5105487;27;20023;-78
2022/09/08 11:38:46;;;;;;;0.70;0.70;;;19.40;99.90;;;;;;5108823;27;20080;-73
2022/09/08 11:41:24;;;;;;;1.92;0.80;;;19.50;99.90;;;;;;5130347;27;20048;-73
2022/09/08 11:44:19;;;;;;;1.20;0.80;;;19.60;99.90;;;;;;5111166;27;20026;-74
2022/09/08 11:47:16;;;;;;;0.70;0.70;;;19.70;99.90;;;;;;5087196;27;20056;-78
2022/09/08 11:50:03;;;;;;;0.70;0.70;;;19.80;99.90;;;;;;5113709;27;20116;-80
2022/09/08 11:52:48;;;;;;;2.08;0.77;;;19.90;99.90;;;;;;5098668;27;20349;-80
2022/09/08 11:55:36;;;;;;;1.02;0.60;;;19.90;99.90;;;;;;5112135;27;20096;-79
2022/09/08 11:58:34;;;;;;;3.22;0.75;;;19.70;99.90;;;;;;5121141;27;20257;-79
2022/09/08 12:01:10;;;;;;;6.57;1.13;;;19.50;99.90;;;;;;5106039;27;20039;-77
2022/09/08 12:03:51;;;;;;;2.42;0.70;;;19.30;99.90;;;;;;5108305;27;20026;-80
2022/09/08 12:06:46;;;;;;;1.63;0.85;;;19.00;99.90;;;;;;5124094;27;20023;-78
2022/09/08 12:09:21;;;;;;;1.20;0.70;;;18.70;99.90;;;;;;5116125;27;20552;-81
2022/09/08 12:11:56;;;;;;;0.50;0.50;;;18.60;99.90;;;;;;5108376;27;20035;-81
2022/09/08 12:14:49;;;;;;;1.17;0.75;;;18.50;99.90;;;;;;5110964;27;20482;-77
2022/09/08 12:17:21;;;;;;;1.67;0.70;;;18.60;99.90;;;;;;4758531;27;9999875;-76
2022/09/08 12:19:49;;;;;;;1.33;0.80;;;18.70;99.90;;;;;;5113614;27;20078;-79
2022/09/08 12:22:50;;;;;;;2.50;0.70;;;18.70;99.90;;;;;;5113151;27;20047;-76
2022/09/08 12:25:40;;;;;;;1.55;0.70;;;18.90;99.90;;;;;;5105685;27;20114;-75
2022/09/08 12:28:05;;;;;;;2.58;0.88;;;19.00;99.90;;;;;;5113422;27;20079;-77
2022/09/08 12:30:40;;;;;;;1.13;0.75;;;19.20;99.90;;;;;;5106198;27;20031;-82
2022/09/08 12:33:51;;;;;;;1.45;0.80;;;19.30;99.90;;;;;;5107011;27;20025;-77
2022/09/08 12:36:38;;;;;;;1.20;0.70;;;19.50;99.90;;;;;;5105063;28;20032;-82
2022/09/08 12:39:42;;;;;;;0.60;0.60;;;19.60;99.90;;;;;;5112781;27;20372;-74
2022/09/08 12:42:35;;;;;;;5.05;0.90;;;19.60;99.90;;;;;;5101740;28;20135;-74
2022/09/08 12:45:24;;;;;;;2.15;0.80;;;19.60;99.90;;;;;;5109912;27;20090;-76
2022/09/08 12:48:02;;;;;;;2.15;0.80;;;19.60;99.90;;;;;;5101531;28;20031;-84
2022/09/08 12:50:48;;;;;;;1.67;0.90;;;19.60;99.90;;;;;;5105945;28;20042;-77
2022/09/08 12:53:46;;;;;;;1.48;0.90;;;19.70;99.90;;;;;;5108154;27;20114;-80
2022/09/08 12:56:21;;;;;;;1.75;0.80;;;19.90;99.90;;;;;;5111292;27;20050;-78
2022/09/08 12:59:22;;;;;;;0.93;0.80;;;20.10;99.90;;;;;;5107613;27;20572;-78
2022/09/08 13:02:21;;;;;;;1.52;0.85;;;20.30;99.90;;;;;;5034954;28;20042;-78
2022/09/08 13:05:15;;;;;;;1.73;0.75;;;20.50;99.90;;;;;;5105620;28;20031;-78
2022/09/08 13:07:44;;;;;;;;;;;20.70;99.90;;;;;;5122060;28;20059;-78
2022/09/08 13:10:09;;;;;;;1.80;0.80;;;20.80;99.90;;;;;;5119525;28;20298;-77
2022/09/08 13:12:53;;;;;;;0.90;0.65;;;21.10;99.90;;;;;;5110538;27;20020;-77
2022/09/08 13:15:27;;;;;;;1.25;0.98;;;21.30;99.90;;;;;;5104553;28;20024;-78
2022/09/08 13:18:04;;;;;;;1.45;0.70;;;21.50;99.90;;;;;;5108299;28;20415;-78
2022/09/08 13:20:40;;;;;;;1.40;0.77;;;21.60;99.90;;;;;;5114769;27;20072;-78
2022/09/08 13:23:16;;;;;;;1.17;0.68;;;21.90;99.90;;;;;;5121449;27;20031;-78
2022/09/08 13:25:46;;;;;;;2.55;0.68;;;21.90;99.90;;;;;;5112342;27;20047;-78
2022/09/08 13:28:25;;;;;;;1.20;0.60;;;21.80;99.90;;;;;;5129353;27;20024;-78
2022/09/08 13:31:04;;;;;;;1.10;0.65;;;21.90;99.90;;;;;;5121540;27;20035;-77
2022/09/08 13:33:45;;;;;;;0.65;0.60;;;21.90;99.90;;;;;;5127091;27;20079;-77
2022/09/08 13:36:21;;;;;;;0.45;0.40;;;21.80;99.90;;;;;;5113037;27;20028;-78
2022/09/08 13:39:08;;;;;;;1.95;0.50;;;21.90;99.90;;;;;;5116879;27;20586;-79
2022/09/08 13:42:05;;;;;;;0.88;0.50;;;22.10;99.90;;;;;;5115318;27;20040;-79